sensor_id;sensor_type;location;lat;lon;timestamp;P1;durP1;ratioP1;P2;durP2;ratioP2
8526;SDS011;4301;48.362;8.478;2022-12-20T00:01:59;37.93;;;21.27;;
8526;SDS011;4301;48.362;8.478;2022-12-20T00:04:26;36.60;;;20.97;;
8526;SDS011;4301;48.362;8.478;2022-12-20T00:06:53;36.20;;;20.97;;
8526;SDS011;4301;48.362;8.478;2022-12-20T00:09:20;34.37;;;20.37;;
8526;SDS011;4301;48.362;8.478;2022-12-20T00:11:49;39.87;;;23.30;;
8526;SDS011;4301;48.362;8.478;2022-12-20T00:14:16;39.27;;;21.33;;
8526;SDS011;4301;48.362;8.478;2022-12-20T00:16:45;28.63;;;17.73;;
8526;SDS011;4301;48.362;8.478;2022-12-20T00:19:12;29.37;;;18.80;;
8526;SDS011;4301;48.362;8.478;2022-12-20T00:21:38;31.30;;;20.07;;
8526;SDS011;4301;48.362;8.478;2022-12-20T00:24:06;30.17;;;21.00;;
8526;SDS011;4301;48.362;8.478;2022-12-20T00:26:33;30.43;;;21.37;;
8526;SDS011;4301;48.362;8.478;2022-12-20T00:29:02;34.67;;;22.03;;
8526;SDS011;4301;48.362;8.478;2022-12-20T00:31:30;29.53;;;20.27;;
8526;SDS011;4301;48.362;8.478;2022-12-20T00:33:58;31.03;;;20.00;;
8526;SDS011;4301;48.362;8.478;2022-12-20T00:36:26;29.20;;;19.77;;
8526;SDS011;4301;48.362;8.478;2022-12-20T00:38:56;25.10;;;17.57;;
8526;SDS011;4301;48.362;8.478;2022-12-20T00:41:24;24.60;;;16.93;;
8526;SDS011;4301;48.362;8.478;2022-12-20T00:43:52;23.03;;;15.80;;
8526;SDS011;4301;48.362;8.478;2022-12-20T00:46:20;28.10;;;17.40;;
8526;SDS011;4301;48.362;8.478;2022-12-20T00:48:48;25.17;;;16.50;;
8526;SDS011;4301;48.362;8.478;2022-12-20T00:51:18;26.93;;;17.40;;
8526;SDS011;4301;48.362;8.478;2022-12-20T00:53:47;26.87;;;18.00;;
8526;SDS011;4301;48.362;8.478;2022-12-20T00:56:14;28.77;;;18.03;;
8526;SDS011;4301;48.362;8.478;2022-12-20T00:58:41;25.87;;;18.03;;
8526;SDS011;4301;48.362;8.478;2022-12-20T01:01:18;27.40;;;18.73;;
8526;SDS011;4301;48.362;8.478;2022-12-20T01:03:46;27.10;;;19.33;;
8526;SDS011;4301;48.362;8.478;2022-12-20T01:06:13;27.07;;;18.33;;
8526;SDS011;4301;48.362;8.478;2022-12-20T01:08:41;27.40;;;19.13;;
8526;SDS011;4301;48.362;8.478;2022-12-20T01:11:11;28.03;;;19.63;;
8526;SDS011;4301;48.362;8.478;2022-12-20T01:13:40;29.47;;;19.23;;
8526;SDS011;4301;48.362;8.478;2022-12-20T01:16:10;25.37;;;18.43;;
8526;SDS011;4301;48.362;8.478;2022-12-20T01:18:39;27.17;;;18.87;;
8526;SDS011;4301;48.362;8.478;2022-12-20T01:21:07;23.63;;;17.20;;
8526;SDS011;4301;48.362;8.478;2022-12-20T01:23:35;24.60;;;17.10;;
8526;SDS011;4301;48.362;8.478;2022-12-20T01:26:05;23.83;;;17.37;;
8526;SDS011;4301;48.362;8.478;2022-12-20T01:28:35;23.07;;;16.53;;
8526;SDS011;4301;48.362;8.478;2022-12-20T01:31:04;20.30;;;15.43;;
8526;SDS011;4301;48.362;8.478;2022-12-20T01:33:31;23.40;;;16.03;;
8526;SDS011;4301;48.362;8.478;2022-12-20T01:35:59;20.00;;;15.27;;
8526;SDS011;4301;48.362;8.478;2022-12-20T01:38:27;22.43;;;15.53;;
8526;SDS011;4301;48.362;8.478;2022-12-20T01:40:55;21.73;;;15.63;;
8526;SDS011;4301;48.362;8.478;2022-12-20T01:43:24;19.67;;;15.00;;
8526;SDS011;4301;48.362;8.478;2022-12-20T01:45:52;22.27;;;15.97;;
8526;SDS011;4301;48.362;8.478;2022-12-20T01:48:19;20.27;;;14.10;;
8526;SDS011;4301;48.362;8.478;2022-12-20T01:50:49;17.63;;;13.50;;
8526;SDS011;4301;48.362;8.478;2022-12-20T01:53:18;18.60;;;13.77;;
8526;SDS011;4301;48.362;8.478;2022-12-20T01:55:48;17.20;;;13.23;;
8526;SDS011;4301;48.362;8.478;2022-12-20T01:58:15;15.63;;;12.57;;
8526;SDS011;4301;48.362;8.478;2022-12-20T02:00:46;21.27;;;13.20;;
8526;SDS011;4301;48.362;8.478;2022-12-20T02:03:14;16.77;;;12.63;;
8526;SDS011;4301;48.362;8.478;2022-12-20T02:05:42;16.63;;;12.50;;
8526;SDS011;4301;48.362;8.478;2022-12-20T02:08:11;16.60;;;12.70;;
8526;SDS011;4301;48.362;8.478;2022-12-20T02:10:43;16.47;;;11.70;;
8526;SDS011;4301;48.362;8.478;2022-12-20T02:13:25;14.90;;;11.23;;
8526;SDS011;4301;48.362;8.478;2022-12-20T02:16:02;15.83;;;11.67;;
8526;SDS011;4301;48.362;8.478;2022-12-20T02:18:31;18.50;;;12.97;;
8526;SDS011;4301;48.362;8.478;2022-12-20T02:27:25;15.47;;;11.10;;
8526;SDS011;4301;48.362;8.478;2022-12-20T02:30:06;18.03;;;11.90;;
8526;SDS011;4301;48.362;8.478;2022-12-20T02:32:36;15.13;;;10.77;;
8526;SDS011;4301;48.362;8.478;2022-12-20T02:35:08;16.07;;;11.00;;
8526;SDS011;4301;48.362;8.478;2022-12-20T02:37:45;15.37;;;11.43;;
8526;SDS011;4301;48.362;8.478;2022-12-20T02:40:13;14.80;;;11.97;;
8526;SDS011;4301;48.362;8.478;2022-12-20T02:42:42;16.57;;;12.40;;
8526;SDS011;4301;48.362;8.478;2022-12-20T02:45:12;20.57;;;12.67;;
8526;SDS011;4301;48.362;8.478;2022-12-20T02:47:43;17.63;;;12.57;;
8526;SDS011;4301;48.362;8.478;2022-12-20T02:50:13;16.77;;;12.40;;
8526;SDS011;4301;48.362;8.478;2022-12-20T02:52:42;14.90;;;11.37;;
8526;SDS011;4301;48.362;8.478;2022-12-20T02:55:09;15.43;;;11.40;;
8526;SDS011;4301;48.362;8.478;2022-12-20T02:57:37;17.30;;;12.67;;
8526;SDS011;4301;48.362;8.478;2022-12-20T03:00:13;16.63;;;12.43;;
8526;SDS011;4301;48.362;8.478;2022-12-20T03:02:42;18.17;;;12.97;;
8526;SDS011;4301;48.362;8.478;2022-12-20T03:05:27;18.30;;;13.07;;
8526;SDS011;4301;48.362;8.478;2022-12-20T03:07:55;20.07;;;14.00;;
8526;SDS011;4301;48.362;8.478;2022-12-20T03:10:22;18.93;;;12.87;;
8526;SDS011;4301;48.362;8.478;2022-12-20T03:12:49;17.53;;;11.60;;
8526;SDS011;4301;48.362;8.478;2022-12-20T03:15:17;14.30;;;10.97;;
8526;SDS011;4301;48.362;8.478;2022-12-20T03:17:44;15.47;;;11.53;;
8526;SDS011;4301;48.362;8.478;2022-12-20T03:20:11;15.60;;;12.13;;
8526;SDS011;4301;48.362;8.478;2022-12-20T03:22:38;16.53;;;10.77;;
8526;SDS011;4301;48.362;8.478;2022-12-20T03:25:05;17.07;;;11.97;;
8526;SDS011;4301;48.362;8.478;2022-12-20T03:27:33;16.57;;;12.13;;
8526;SDS011;4301;48.362;8.478;2022-12-20T03:30:00;17.93;;;13.03;;
8526;SDS011;4301;48.362;8.478;2022-12-20T03:32:28;19.33;;;13.13;;
8526;SDS011;4301;48.362;8.478;2022-12-20T03:34:55;20.43;;;13.93;;
8526;SDS011;4301;48.362;8.478;2022-12-20T03:37:23;20.03;;;13.70;;
8526;SDS011;4301;48.362;8.478;2022-12-20T03:39:50;15.87;;;11.73;;
8526;SDS011;4301;48.362;8.478;2022-12-20T03:42:17;17.43;;;12.67;;
8526;SDS011;4301;48.362;8.478;2022-12-20T03:44:44;23.27;;;16.53;;
8526;SDS011;4301;48.362;8.478;2022-12-20T03:47:11;16.47;;;12.50;;
8526;SDS011;4301;48.362;8.478;2022-12-20T03:49:39;14.00;;;11.00;;
8526;SDS011;4301;48.362;8.478;2022-12-20T03:52:06;15.80;;;11.13;;
8526;SDS011;4301;48.362;8.478;2022-12-20T03:54:34;14.53;;;11.17;;
8526;SDS011;4301;48.362;8.478;2022-12-20T03:57:01;15.73;;;11.80;;
8526;SDS011;4301;48.362;8.478;2022-12-20T03:59:28;16.03;;;12.13;;
8526;SDS011;4301;48.362;8.478;2022-12-20T04:01:55;17.27;;;12.90;;
8526;SDS011;4301;48.362;8.478;2022-12-20T04:04:22;17.20;;;12.20;;
8526;SDS011;4301;48.362;8.478;2022-12-20T04:06:50;16.23;;;11.87;;
8526;SDS011;4301;48.362;8.478;2022-12-20T04:09:17;16.73;;;12.53;;
8526;SDS011;4301;48.362;8.478;2022-12-20T04:11:44;15.73;;;11.40;;
8526;SDS011;4301;48.362;8.478;2022-12-20T04:14:11;13.87;;;10.20;;
8526;SDS011;4301;48.362;8.478;2022-12-20T04:16:38;17.10;;;11.23;;
8526;SDS011;4301;48.362;8.478;2022-12-20T04:19:05;13.27;;;10.00;;
8526;SDS011;4301;48.362;8.478;2022-12-20T04:21:32;13.73;;;10.60;;
8526;SDS011;4301;48.362;8.478;2022-12-20T04:24:01;15.43;;;11.20;;
8526;SDS011;4301;48.362;8.478;2022-12-20T04:26:29;16.00;;;11.50;;
8526;SDS011;4301;48.362;8.478;2022-12-20T04:28:56;16.30;;;11.10;;
8526;SDS011;4301;48.362;8.478;2022-12-20T04:31:23;16.67;;;12.03;;
8526;SDS011;4301;48.362;8.478;2022-12-20T04:33:50;16.73;;;11.87;;
8526;SDS011;4301;48.362;8.478;2022-12-20T04:36:17;19.77;;;12.97;;
8526;SDS011;4301;48.362;8.478;2022-12-20T04:38:45;17.13;;;12.33;;
8526;SDS011;4301;48.362;8.478;2022-12-20T04:41:13;18.00;;;12.07;;
8526;SDS011;4301;48.362;8.478;2022-12-20T04:43:46;15.23;;;11.57;;
8526;SDS011;4301;48.362;8.478;2022-12-20T04:46:14;18.33;;;12.70;;
8526;SDS011;4301;48.362;8.478;2022-12-20T04:48:41;13.23;;;9.77;;
8526;SDS011;4301;48.362;8.478;2022-12-20T04:51:08;16.87;;;10.90;;
8526;SDS011;4301;48.362;8.478;2022-12-20T04:53:35;14.43;;;10.67;;
8526;SDS011;4301;48.362;8.478;2022-12-20T04:56:18;14.87;;;10.80;;
8526;SDS011;4301;48.362;8.478;2022-12-20T04:58:47;20.00;;;12.20;;
8526;SDS011;4301;48.362;8.478;2022-12-20T05:01:16;16.83;;;11.80;;
8526;SDS011;4301;48.362;8.478;2022-12-20T05:03:44;19.63;;;12.17;;
8526;SDS011;4301;48.362;8.478;2022-12-20T05:06:11;16.63;;;12.13;;
8526;SDS011;4301;48.362;8.478;2022-12-20T05:08:38;14.73;;;10.77;;
8526;SDS011;4301;48.362;8.478;2022-12-20T05:11:05;16.13;;;11.93;;
8526;SDS011;4301;48.362;8.478;2022-12-20T05:13:34;15.10;;;10.73;;
8526;SDS011;4301;48.362;8.478;2022-12-20T05:16:01;16.20;;;11.40;;
8526;SDS011;4301;48.362;8.478;2022-12-20T05:18:29;17.97;;;12.13;;
8526;SDS011;4301;48.362;8.478;2022-12-20T05:20:56;13.50;;;10.67;;
8526;SDS011;4301;48.362;8.478;2022-12-20T05:23:41;14.97;;;10.47;;
8526;SDS011;4301;48.362;8.478;2022-12-20T05:26:26;13.20;;;10.20;;
8526;SDS011;4301;48.362;8.478;2022-12-20T05:28:56;14.40;;;10.80;;
8526;SDS011;4301;48.362;8.478;2022-12-20T05:31:23;16.67;;;11.50;;
8526;SDS011;4301;48.362;8.478;2022-12-20T05:33:50;14.43;;;10.00;;
8526;SDS011;4301;48.362;8.478;2022-12-20T05:36:17;14.10;;;9.53;;
8526;SDS011;4301;48.362;8.478;2022-12-20T05:38:44;12.03;;;9.50;;
8526;SDS011;4301;48.362;8.478;2022-12-20T05:41:12;18.87;;;11.33;;
8526;SDS011;4301;48.362;8.478;2022-12-20T05:43:40;17.83;;;11.87;;
8526;SDS011;4301;48.362;8.478;2022-12-20T05:46:08;16.80;;;11.07;;
8526;SDS011;4301;48.362;8.478;2022-12-20T05:48:35;13.83;;;10.37;;
8526;SDS011;4301;48.362;8.478;2022-12-20T05:51:02;17.13;;;10.63;;
8526;SDS011;4301;48.362;8.478;2022-12-20T05:53:29;19.10;;;12.40;;
8526;SDS011;4301;48.362;8.478;2022-12-20T05:55:56;17.50;;;10.87;;
8526;SDS011;4301;48.362;8.478;2022-12-20T05:58:23;21.13;;;13.00;;
8526;SDS011;4301;48.362;8.478;2022-12-20T06:00:50;19.40;;;12.80;;
8526;SDS011;4301;48.362;8.478;2022-12-20T06:03:19;20.00;;;14.67;;
8526;SDS011;4301;48.362;8.478;2022-12-20T06:05:46;19.43;;;13.63;;
8526;SDS011;4301;48.362;8.478;2022-12-20T06:08:13;17.20;;;11.83;;
8526;SDS011;4301;48.362;8.478;2022-12-20T06:10:40;17.07;;;10.67;;
8526;SDS011;4301;48.362;8.478;2022-12-20T06:13:07;16.10;;;11.30;;
8526;SDS011;4301;48.362;8.478;2022-12-20T06:15:35;17.77;;;11.73;;
8526;SDS011;4301;48.362;8.478;2022-12-20T06:18:03;18.37;;;13.20;;
8526;SDS011;4301;48.362;8.478;2022-12-20T06:20:32;18.97;;;13.70;;
8526;SDS011;4301;48.362;8.478;2022-12-20T06:23:00;18.83;;;13.00;;
8526;SDS011;4301;48.362;8.478;2022-12-20T06:25:27;16.70;;;12.50;;
8526;SDS011;4301;48.362;8.478;2022-12-20T06:27:54;22.73;;;12.87;;
8526;SDS011;4301;48.362;8.478;2022-12-20T06:30:21;18.98;;;12.57;;
8526;SDS011;4301;48.362;8.478;2022-12-20T06:32:48;19.50;;;15.90;;
8526;SDS011;4301;48.362;8.478;2022-12-20T06:35:15;23.33;;;15.60;;
8526;SDS011;4301;48.362;8.478;2022-12-20T06:37:44;22.17;;;14.37;;
8526;SDS011;4301;48.362;8.478;2022-12-20T06:40:11;20.90;;;14.47;;
8526;SDS011;4301;48.362;8.478;2022-12-20T06:42:39;18.57;;;14.07;;
8526;SDS011;4301;48.362;8.478;2022-12-20T06:45:06;18.23;;;12.33;;
8526;SDS011;4301;48.362;8.478;2022-12-20T06:47:34;18.80;;;13.10;;
8526;SDS011;4301;48.362;8.478;2022-12-20T06:50:01;18.03;;;12.80;;
8526;SDS011;4301;48.362;8.478;2022-12-20T06:52:29;22.63;;;14.10;;
8526;SDS011;4301;48.362;8.478;2022-12-20T06:54:58;19.37;;;14.17;;
8526;SDS011;4301;48.362;8.478;2022-12-20T06:57:25;27.97;;;16.90;;
8526;SDS011;4301;48.362;8.478;2022-12-20T06:59:52;22.37;;;15.20;;
8526;SDS011;4301;48.362;8.478;2022-12-20T07:02:19;20.43;;;14.97;;
8526;SDS011;4301;48.362;8.478;2022-12-20T07:04:45;29.13;;;20.10;;
8526;SDS011;4301;48.362;8.478;2022-12-20T07:07:12;20.03;;;13.67;;
8526;SDS011;4301;48.362;8.478;2022-12-20T07:09:39;22.17;;;14.47;;
8526;SDS011;4301;48.362;8.478;2022-12-20T07:12:08;19.33;;;13.83;;
8526;SDS011;4301;48.362;8.478;2022-12-20T07:14:36;22.37;;;15.50;;
8526;SDS011;4301;48.362;8.478;2022-12-20T07:17:03;20.63;;;14.13;;
8526;SDS011;4301;48.362;8.478;2022-12-20T07:19:31;20.83;;;14.90;;
8526;SDS011;4301;48.362;8.478;2022-12-20T07:21:58;20.57;;;14.67;;
8526;SDS011;4301;48.362;8.478;2022-12-20T07:24:25;21.93;;;14.47;;
8526;SDS011;4301;48.362;8.478;2022-12-20T07:26:52;19.97;;;13.77;;
8526;SDS011;4301;48.362;8.478;2022-12-20T07:29:20;20.03;;;13.50;;
8526;SDS011;4301;48.362;8.478;2022-12-20T07:31:47;23.43;;;16.50;;
8526;SDS011;4301;48.362;8.478;2022-12-20T07:34:14;20.27;;;14.67;;
8526;SDS011;4301;48.362;8.478;2022-12-20T07:36:41;16.63;;;12.53;;
8526;SDS011;4301;48.362;8.478;2022-12-20T07:39:08;20.03;;;14.23;;
8526;SDS011;4301;48.362;8.478;2022-12-20T07:41:35;20.73;;;15.17;;
8526;SDS011;4301;48.362;8.478;2022-12-20T07:44:01;18.77;;;14.40;;
8526;SDS011;4301;48.362;8.478;2022-12-20T07:46:30;16.90;;;12.70;;
8526;SDS011;4301;48.362;8.478;2022-12-20T07:48:57;18.30;;;12.50;;
8526;SDS011;4301;48.362;8.478;2022-12-20T07:51:24;17.47;;;12.10;;
8526;SDS011;4301;48.362;8.478;2022-12-20T07:53:53;17.87;;;12.80;;
8526;SDS011;4301;48.362;8.478;2022-12-20T07:56:25;17.37;;;13.03;;
8526;SDS011;4301;48.362;8.478;2022-12-20T07:58:55;15.23;;;12.13;;
8526;SDS011;4301;48.362;8.478;2022-12-20T08:01:25;18.40;;;13.47;;
8526;SDS011;4301;48.362;8.478;2022-12-20T08:03:56;20.70;;;13.70;;
8526;SDS011;4301;48.362;8.478;2022-12-20T08:06:27;17.53;;;13.63;;
8526;SDS011;4301;48.362;8.478;2022-12-20T08:08:56;20.57;;;14.10;;
8526;SDS011;4301;48.362;8.478;2022-12-20T08:11:25;17.10;;;13.40;;
8526;SDS011;4301;48.362;8.478;2022-12-20T08:13:53;18.50;;;13.60;;
8526;SDS011;4301;48.362;8.478;2022-12-20T08:16:21;19.50;;;13.43;;
8526;SDS011;4301;48.362;8.478;2022-12-20T08:18:47;15.90;;;12.63;;
8526;SDS011;4301;48.362;8.478;2022-12-20T08:21:16;20.93;;;13.97;;
8526;SDS011;4301;48.362;8.478;2022-12-20T08:23:45;19.03;;;14.53;;
8526;SDS011;4301;48.362;8.478;2022-12-20T08:26:12;16.33;;;12.63;;
8526;SDS011;4301;48.362;8.478;2022-12-20T08:28:39;19.47;;;13.27;;
8526;SDS011;4301;48.362;8.478;2022-12-20T08:31:07;20.30;;;13.87;;
8526;SDS011;4301;48.362;8.478;2022-12-20T08:33:36;17.37;;;12.93;;
8526;SDS011;4301;48.362;8.478;2022-12-20T08:36:05;16.77;;;12.77;;
8526;SDS011;4301;48.362;8.478;2022-12-20T08:38:35;19.93;;;13.90;;
8526;SDS011;4301;48.362;8.478;2022-12-20T08:41:02;42.30;;;28.60;;
8526;SDS011;4301;48.362;8.478;2022-12-20T08:43:30;32.87;;;22.63;;
8526;SDS011;4301;48.362;8.478;2022-12-20T08:45:58;18.03;;;13.10;;
8526;SDS011;4301;48.362;8.478;2022-12-20T08:48:26;16.80;;;12.37;;
8526;SDS011;4301;48.362;8.478;2022-12-20T08:50:53;16.37;;;12.30;;
8526;SDS011;4301;48.362;8.478;2022-12-20T08:53:21;18.53;;;12.70;;
8526;SDS011;4301;48.362;8.478;2022-12-20T08:55:50;19.13;;;12.97;;
8526;SDS011;4301;48.362;8.478;2022-12-20T08:58:18;16.53;;;14.27;;
8526;SDS011;4301;48.362;8.478;2022-12-20T09:00:45;19.60;;;14.73;;
8526;SDS011;4301;48.362;8.478;2022-12-20T09:03:12;18.37;;;13.90;;
8526;SDS011;4301;48.362;8.478;2022-12-20T09:05:43;16.23;;;13.37;;
8526;SDS011;4301;48.362;8.478;2022-12-20T09:08:11;16.00;;;12.10;;
8526;SDS011;4301;48.362;8.478;2022-12-20T09:10:39;12.77;;;10.57;;
8526;SDS011;4301;48.362;8.478;2022-12-20T09:13:07;16.70;;;11.77;;
8526;SDS011;4301;48.362;8.478;2022-12-20T09:15:34;15.57;;;9.60;;
8526;SDS011;4301;48.362;8.478;2022-12-20T09:18:01;15.07;;;12.40;;
8526;SDS011;4301;48.362;8.478;2022-12-20T09:20:29;14.37;;;10.83;;
8526;SDS011;4301;48.362;8.478;2022-12-20T09:22:56;14.67;;;10.93;;
8526;SDS011;4301;48.362;8.478;2022-12-20T09:25:24;12.53;;;9.50;;
8526;SDS011;4301;48.362;8.478;2022-12-20T09:27:51;12.57;;;8.63;;
8526;SDS011;4301;48.362;8.478;2022-12-20T09:30:20;9.93;;;7.50;;
8526;SDS011;4301;48.362;8.478;2022-12-20T09:32:47;8.13;;;7.20;;
8526;SDS011;4301;48.362;8.478;2022-12-20T09:35:14;8.30;;;7.10;;
8526;SDS011;4301;48.362;8.478;2022-12-20T09:37:41;10.10;;;7.67;;
8526;SDS011;4301;48.362;8.478;2022-12-20T09:40:09;10.33;;;6.53;;
8526;SDS011;4301;48.362;8.478;2022-12-20T09:42:43;9.40;;;7.30;;
8526;SDS011;4301;48.362;8.478;2022-12-20T09:45:13;11.03;;;8.60;;
8526;SDS011;4301;48.362;8.478;2022-12-20T09:47:49;12.33;;;8.93;;
8526;SDS011;4301;48.362;8.478;2022-12-20T09:50:17;39.30;;;19.40;;
8526;SDS011;4301;48.362;8.478;2022-12-20T09:52:48;16.30;;;9.40;;
8526;SDS011;4301;48.362;8.478;2022-12-20T09:55:26;23.43;;;11.93;;
8526;SDS011;4301;48.362;8.478;2022-12-20T09:58:07;12.73;;;8.73;;
8526;SDS011;4301;48.362;8.478;2022-12-20T10:00:48;22.83;;;11.13;;
8526;SDS011;4301;48.362;8.478;2022-12-20T10:03:17;14.07;;;9.03;;
8526;SDS011;4301;48.362;8.478;2022-12-20T10:05:49;13.17;;;9.00;;
8526;SDS011;4301;48.362;8.478;2022-12-20T10:08:23;38.87;;;17.67;;
8526;SDS011;4301;48.362;8.478;2022-12-20T10:11:04;14.40;;;8.93;;
8526;SDS011;4301;48.362;8.478;2022-12-20T10:13:43;11.87;;;8.33;;
8526;SDS011;4301;48.362;8.478;2022-12-20T10:16:24;19.60;;;11.30;;
8526;SDS011;4301;48.362;8.478;2022-12-20T10:19:03;11.80;;;8.00;;
8526;SDS011;4301;48.362;8.478;2022-12-20T10:21:43;25.63;;;12.87;;
8526;SDS011;4301;48.362;8.478;2022-12-20T10:24:15;20.83;;;11.70;;
8526;SDS011;4301;48.362;8.478;2022-12-20T10:26:44;15.10;;;9.57;;
8526;SDS011;4301;48.362;8.478;2022-12-20T10:29:14;12.73;;;9.70;;
8526;SDS011;4301;48.362;8.478;2022-12-20T10:31:43;12.63;;;8.77;;
8526;SDS011;4301;48.362;8.478;2022-12-20T10:34:10;16.87;;;10.70;;
8526;SDS011;4301;48.362;8.478;2022-12-20T10:36:37;19.97;;;12.87;;
8526;SDS011;4301;48.362;8.478;2022-12-20T10:39:05;16.73;;;11.43;;
8526;SDS011;4301;48.362;8.478;2022-12-20T10:41:45;15.83;;;11.17;;
8526;SDS011;4301;48.362;8.478;2022-12-20T10:44:17;14.50;;;9.43;;
8526;SDS011;4301;48.362;8.478;2022-12-20T10:46:50;12.50;;;9.33;;
8526;SDS011;4301;48.362;8.478;2022-12-20T10:49:28;11.40;;;8.30;;
8526;SDS011;4301;48.362;8.478;2022-12-20T10:51:58;13.47;;;9.27;;
8526;SDS011;4301;48.362;8.478;2022-12-20T10:54:31;13.70;;;8.40;;
8526;SDS011;4301;48.362;8.478;2022-12-20T10:57:00;11.37;;;8.47;;
8526;SDS011;4301;48.362;8.478;2022-12-20T10:59:29;11.83;;;8.87;;
8526;SDS011;4301;48.362;8.478;2022-12-20T11:02:01;9.53;;;7.17;;
8526;SDS011;4301;48.362;8.478;2022-12-20T11:04:29;8.53;;;7.63;;
8526;SDS011;4301;48.362;8.478;2022-12-20T11:06:57;11.00;;;8.90;;
8526;SDS011;4301;48.362;8.478;2022-12-20T11:09:29;10.23;;;8.23;;
8526;SDS011;4301;48.362;8.478;2022-12-20T11:11:59;8.97;;;7.87;;
8526;SDS011;4301;48.362;8.478;2022-12-20T11:14:28;12.10;;;7.57;;
8526;SDS011;4301;48.362;8.478;2022-12-20T11:16:56;10.17;;;7.27;;
8526;SDS011;4301;48.362;8.478;2022-12-20T11:19:42;8.57;;;7.50;;
8526;SDS011;4301;48.362;8.478;2022-12-20T11:22:42;9.30;;;7.50;;
8526;SDS011;4301;48.362;8.478;2022-12-20T11:25:19;8.10;;;6.97;;
8526;SDS011;4301;48.362;8.478;2022-12-20T11:28:07;11.57;;;9.37;;
8526;SDS011;4301;48.362;8.478;2022-12-20T11:30:47;7.10;;;6.40;;
8526;SDS011;4301;48.362;8.478;2022-12-20T11:33:28;9.33;;;6.83;;
8526;SDS011;4301;48.362;8.478;2022-12-20T11:36:08;8.40;;;6.37;;
8526;SDS011;4301;48.362;8.478;2022-12-20T11:38:41;7.03;;;6.33;;
8526;SDS011;4301;48.362;8.478;2022-12-20T11:41:15;6.03;;;5.43;;
8526;SDS011;4301;48.362;8.478;2022-12-20T11:43:53;6.53;;;5.23;;
8526;SDS011;4301;48.362;8.478;2022-12-20T11:46:35;6.30;;;5.70;;
8526;SDS011;4301;48.362;8.478;2022-12-20T11:52:19;7.97;;;5.20;;
8526;SDS011;4301;48.362;8.478;2022-12-20T11:54:56;6.10;;;5.50;;
8526;SDS011;4301;48.362;8.478;2022-12-20T11:57:33;7.90;;;5.47;;
8526;SDS011;4301;48.362;8.478;2022-12-20T12:00:10;7.50;;;5.70;;
8526;SDS011;4301;48.362;8.478;2022-12-20T12:02:41;6.93;;;5.50;;
8526;SDS011;4301;48.362;8.478;2022-12-20T12:05:14;6.10;;;5.47;;
8526;SDS011;4301;48.362;8.478;2022-12-20T12:07:48;6.73;;;5.90;;
8526;SDS011;4301;48.362;8.478;2022-12-20T12:10:21;8.13;;;6.13;;
8526;SDS011;4301;48.362;8.478;2022-12-20T12:12:51;8.77;;;6.40;;
8526;SDS011;4301;48.362;8.478;2022-12-20T12:15:26;7.33;;;6.63;;
8526;SDS011;4301;48.362;8.478;2022-12-20T12:17:59;8.70;;;7.10;;
8526;SDS011;4301;48.362;8.478;2022-12-20T12:20:32;7.40;;;6.70;;
8526;SDS011;4301;48.362;8.478;2022-12-20T12:23:09;13.53;;;9.90;;
8526;SDS011;4301;48.362;8.478;2022-12-20T12:25:41;8.60;;;7.67;;
8526;SDS011;4301;48.362;8.478;2022-12-20T12:28:09;9.93;;;7.47;;
8526;SDS011;4301;48.362;8.478;2022-12-20T12:30:38;11.00;;;7.50;;
8526;SDS011;4301;48.362;8.478;2022-12-20T12:33:11;8.67;;;7.20;;
8526;SDS011;4301;48.362;8.478;2022-12-20T12:35:46;7.73;;;6.97;;
8526;SDS011;4301;48.362;8.478;2022-12-20T12:38:45;10.23;;;7.10;;
8526;SDS011;4301;48.362;8.478;2022-12-20T12:41:35;10.27;;;8.87;;
8526;SDS011;4301;48.362;8.478;2022-12-20T12:47:15;7.60;;;6.67;;
8526;SDS011;4301;48.362;8.478;2022-12-20T12:49:47;8.23;;;6.07;;
8526;SDS011;4301;48.362;8.478;2022-12-20T12:52:27;13.17;;;8.00;;
8526;SDS011;4301;48.362;8.478;2022-12-20T12:55:04;12.70;;;9.97;;
8526;SDS011;4301;48.362;8.478;2022-12-20T12:58:29;28.07;;;21.60;;
8526;SDS011;4301;48.362;8.478;2022-12-20T13:00:58;37.33;;;23.50;;
8526;SDS011;4301;48.362;8.478;2022-12-20T13:03:39;27.50;;;18.83;;
8526;SDS011;4301;48.362;8.478;2022-12-20T13:09:40;27.23;;;18.43;;
8526;SDS011;4301;48.362;8.478;2022-12-20T13:18:26;23.80;;;16.30;;
8526;SDS011;4301;48.362;8.478;2022-12-20T13:27:02;23.03;;;17.57;;
8526;SDS011;4301;48.362;8.478;2022-12-20T13:29:49;24.17;;;17.83;;
8526;SDS011;4301;48.362;8.478;2022-12-20T13:35:41;16.37;;;12.70;;
8526;SDS011;4301;48.362;8.478;2022-12-20T13:41:30;15.00;;;10.87;;
8526;SDS011;4301;48.362;8.478;2022-12-20T13:44:00;10.80;;;9.07;;
8526;SDS011;4301;48.362;8.478;2022-12-20T13:46:46;10.23;;;9.03;;
8526;SDS011;4301;48.362;8.478;2022-12-20T13:49:19;12.30;;;8.73;;
8526;SDS011;4301;48.362;8.478;2022-12-20T13:52:05;11.73;;;9.10;;
8526;SDS011;4301;48.362;8.478;2022-12-20T13:54:43;10.60;;;8.07;;
8526;SDS011;4301;48.362;8.478;2022-12-20T13:57:13;10.33;;;7.90;;
8526;SDS011;4301;48.362;8.478;2022-12-20T13:59:44;10.13;;;8.43;;
8526;SDS011;4301;48.362;8.478;2022-12-20T14:02:16;12.27;;;8.93;;
8526;SDS011;4301;48.362;8.478;2022-12-20T14:04:50;12.37;;;10.17;;
8526;SDS011;4301;48.362;8.478;2022-12-20T14:07:23;10.07;;;8.50;;
8526;SDS011;4301;48.362;8.478;2022-12-20T14:09:56;11.20;;;8.20;;
8526;SDS011;4301;48.362;8.478;2022-12-20T14:12:24;10.47;;;8.20;;
8526;SDS011;4301;48.362;8.478;2022-12-20T14:14:52;12.03;;;9.43;;
8526;SDS011;4301;48.362;8.478;2022-12-20T14:17:23;8.43;;;7.50;;
8526;SDS011;4301;48.362;8.478;2022-12-20T14:22:41;9.68;;;8.30;;
8526;SDS011;4301;48.362;8.478;2022-12-20T14:25:14;10.43;;;8.57;;
8526;SDS011;4301;48.362;8.478;2022-12-20T14:27:43;6.40;;;5.73;;
8526;SDS011;4301;48.362;8.478;2022-12-20T14:30:24;6.10;;;5.50;;
8526;SDS011;4301;48.362;8.478;2022-12-20T14:32:53;7.57;;;6.37;;
8526;SDS011;4301;48.362;8.478;2022-12-20T14:35:22;8.07;;;7.20;;
8526;SDS011;4301;48.362;8.478;2022-12-20T14:37:54;8.97;;;7.30;;
8526;SDS011;4301;48.362;8.478;2022-12-20T14:40:23;8.23;;;6.63;;
8526;SDS011;4301;48.362;8.478;2022-12-20T14:42:50;6.37;;;5.77;;
8526;SDS011;4301;48.362;8.478;2022-12-20T14:45:19;6.23;;;5.60;;
8526;SDS011;4301;48.362;8.478;2022-12-20T14:47:49;10.10;;;6.60;;
8526;SDS011;4301;48.362;8.478;2022-12-20T14:50:23;7.33;;;5.93;;
8526;SDS011;4301;48.362;8.478;2022-12-20T14:52:58;7.30;;;6.00;;
8526;SDS011;4301;48.362;8.478;2022-12-20T14:55:28;8.70;;;6.13;;
8526;SDS011;4301;48.362;8.478;2022-12-20T14:57:58;6.05;;;5.45;;
8526;SDS011;4301;48.362;8.478;2022-12-20T15:00:26;9.03;;;6.20;;
8526;SDS011;4301;48.362;8.478;2022-12-20T15:02:59;6.57;;;5.97;;
8526;SDS011;4301;48.362;8.478;2022-12-20T15:05:41;12.03;;;8.43;;
8526;SDS011;4301;48.362;8.478;2022-12-20T15:08:14;7.13;;;6.30;;
8526;SDS011;4301;48.362;8.478;2022-12-20T15:10:47;6.80;;;6.07;;
8526;SDS011;4301;48.362;8.478;2022-12-20T15:13:18;6.80;;;6.10;;
8526;SDS011;4301;48.362;8.478;2022-12-20T15:15:46;8.53;;;6.63;;
8526;SDS011;4301;48.362;8.478;2022-12-20T15:18:14;9.73;;;7.47;;
8526;SDS011;4301;48.362;8.478;2022-12-20T15:20:44;6.47;;;5.80;;
8526;SDS011;4301;48.362;8.478;2022-12-20T15:23:14;6.90;;;6.20;;
8526;SDS011;4301;48.362;8.478;2022-12-20T15:25:42;6.97;;;6.27;;
8526;SDS011;4301;48.362;8.478;2022-12-20T15:28:14;7.73;;;6.30;;
8526;SDS011;4301;48.362;8.478;2022-12-20T15:30:42;6.53;;;5.83;;
8526;SDS011;4301;48.362;8.478;2022-12-20T15:33:15;6.97;;;6.27;;
8526;SDS011;4301;48.362;8.478;2022-12-20T15:35:45;7.10;;;6.40;;
8526;SDS011;4301;48.362;8.478;2022-12-20T15:38:13;7.33;;;6.63;;
8526;SDS011;4301;48.362;8.478;2022-12-20T15:40:42;7.83;;;6.80;;
8526;SDS011;4301;48.362;8.478;2022-12-20T15:43:13;7.57;;;6.77;;
8526;SDS011;4301;48.362;8.478;2022-12-20T15:45:42;8.53;;;6.47;;
8526;SDS011;4301;48.362;8.478;2022-12-20T15:48:13;10.87;;;6.90;;
8526;SDS011;4301;48.362;8.478;2022-12-20T15:50:42;8.03;;;7.23;;
8526;SDS011;4301;48.362;8.478;2022-12-20T15:53:14;11.53;;;10.00;;